Flight Track Log - Related Links

Times and Time Zones

All times are in EDT time to prevent confusion due to time zone crossing. See the ASQ6115 flight status page for this flight to view local times or setup timezone preferences in your user account.


Time Position Orientation Groundspeed Altitude Reporting Facility
EDT Latitude Longitude Course Direction KTS MPH feet Rate Location/Type
Thu 02:20:10 PM 29.9114 -95.2750 189° South 226 260 2,800  Level Houston Center
Thu 02:21:19 PM 29.8553 -95.2019 132° Southeast 246 283 4,500 1,786 Climbing Houston Center
Thu 02:22:00 PM 29.5949 -95.4104 191° South  Level FlightAware Approximate
Thu 02:22:21 PM 29.7994 -95.1453 139° Southeast 266 306 6,700  Level Houston Center
Thu 02:23:00 PM 29.4979 -95.4304 190° South  Level FlightAware Approximate
Thu 02:23:23 PM 29.7292 -95.1128 158° South 287 330 8,900  Level Houston Center
Thu 02:24:00 PM 29.4008 -95.4498 190° South  Level FlightAware Approximate
Thu 02:24:25 PM 29.6511 -95.1361 195° South 287 330 10,400  Level Houston Center
Thu 02:25:00 PM 29.3078 -95.4673 189° South  Level FlightAware Approximate
Thu 02:25:27 PM 29.5528 -95.1658 195° South 324 373 11,200  Level Houston Center
Thu 02:26:29 PM 29.4631 -95.2136 205° Southwest 349 402 12,400 1,104 Climbing Houston Center
Thu 02:27:32 PM 29.3722 -95.2647 206° Southwest 358 412 13,500 1,152 Climbing Houston Center
Thu 02:28:34 PM 29.2939 -95.3372 219° Southwest 372 428 14,800 1,016 Climbing Houston Center
Thu 02:29:36 PM 29.2350 -95.4358 236° Southwest 376 433 15,600 871 Climbing Houston Center
Thu 02:30:38 PM 29.1636 -95.5569 236° Southwest 381 438 16,600 919 Climbing Houston Center
Thu 02:31:40 PM 29.0908 -95.6475 227° Southwest 385 443 17,500 823 Climbing Houston Center
Thu 02:32:42 PM 29.0175 -95.7394 228° Southwest 389 448 18,300 774 Climbing Houston Center
Thu 02:33:44 PM 28.9442 -95.8317 228° Southwest 391 450 19,100 823 Climbing Houston Center
Thu 02:34:46 PM 28.8686 -95.9217 226° Southwest 393 452 20,000 816 Climbing Houston Center
Thu 02:35:49 PM 28.7906 -96.0114 225° Southwest 396 456 20,800 864 Climbing Houston Center
Thu 02:36:51 PM 28.6856 -96.1067 219° Southwest 403 464 21,800 919 Climbing Houston Center
Thu 02:37:53 PM 28.5983 -96.1836 218° Southwest 397 457 22,700 871 Climbing Houston Center
Thu 02:38:55 PM 28.5106 -96.2600 217° Southwest 397 457 23,600 629 Climbing Houston Center
Thu 02:39:57 PM 28.4219 -96.3369 217° Southwest 398 458 24,000 194 Climbing Houston Center
Thu 02:40:59 PM 28.3303 -96.4172 218° Southwest 410 472 24,000  Level Houston Center
Thu 02:42:01 PM 28.2353 -96.4978 217° Southwest 421 484 24,000  Level Houston Center
Thu 02:43:04 PM 28.1186 -96.5989 217° Southwest 433 498 24,000  Level Houston Center
Thu 02:44:06 PM 28.0208 -96.6825 217° Southwest 439 505 24,000 -48 Level Houston Center
Thu 02:45:08 PM 27.9253 -96.7650 217° Southwest 434 499 23,900  Descending Houston Center
Thu 02:46:10 PM 27.8333 -96.8447 217° Southwest 422 486 24,000 48 Climbing Houston Center
Thu 02:47:12 PM 27.7419 -96.9231 217° Southwest 415 478 24,000  Level Houston Center
Thu 02:48:14 PM 27.6506 -97.0014 217° Southwest 412 474 24,000 -48 Level Houston Center
Thu 02:49:16 PM 27.5406 -97.0944 217° Southwest 412 474 23,900 -384 Descending Houston Center
Thu 02:50:19 PM 27.4522 -97.1689 217° Southwest 411 473 23,200 -768 Descending Houston Center
Thu 02:51:21 PM 27.3631 -97.2450 217° Southwest 406 467 22,300 -968 Descending Houston Center
Thu 02:52:23 PM 27.2733 -97.3217 217° Southwest 405 466 21,200 -1,210 Descending Houston Center
Thu 02:53:25 PM 27.1853 -97.3972 217° Southwest 401 461 19,800 -1,576 Descending Houston Center
Thu 02:54:21 PM 27.1033 -97.4928 226° Southwest 389 448 18,100 -1,645 Descending Houston Center
Thu 02:55:29 PM 27.0272 -97.6047 233° Southwest 411 473 16,400 -857 Descending Houston Center
Thu 02:56:41 PM 26.9522 -97.7294 236° Southwest 380 437 16,100 -240 Descending Houston Center
Thu 02:57:34 PM 26.8953 -97.8103 232° Southwest 397 457 15,900 -1,148 Descending Houston Center
Thu 02:58:36 PM 26.7981 -97.8803 213° Southwest 388 447 13,900 -1,839 Descending Houston Center
Thu 02:59:38 PM 26.7233 -97.9519 221° Southwest 359 413 12,100 -1,548 Descending Houston Center
Thu 03:00:40 PM 26.6608 -98.0319 229° Southwest 325 374 10,700 -1,694 Descending Houston Center
Thu 03:01:42 PM 26.6094 -98.0969 229° Southwest 292 336 8,600 -2,177 Descending Houston Center
Thu 03:02:44 PM 26.5531 -98.1581 224° Southwest 268 308 6,200 -2,215 Descending Houston Center
Thu 03:03:52 PM 26.4925 -98.2139 220° Southwest 253 291 3,800 -2,016 Descending Houston Center
Thu 03:04:49 PM 26.4397 -98.2631 220° Southwest 254 292 2,000 -879 Descending Houston Center
Thu 03:05:48 PM 26.3867 -98.3092 218° Southwest 244 281 2,100  Climbing Houston Center
Thu 03:06:53 PM 26.3206 -98.3375 201° Southwest 238 274 2,000 -92 Descending Houston Center

Login

Don't have an account? Register now (free) for customized features, flight alerts, and more!